West Galveston, Texas
Current Conditions -  °F | °C
As of 11:52 AM on Tuesday 21 Oct 2014 (Local Time) from KGLS Reporting Station
Few Clouds Few Clouds  
Wind Chill: 78°   Ceiling: Unl
Heat Index: 80°   Visibility: 10mi
Dew Point: 66°   Wind: 10mph
Humidity: 66%   Direction: 70°ENE
Pressure: 30.06"   Gusts: NA
Location:  29.2029°N, 94.9576°W
Report Text: KGLS 211652Z 07009KT 10SM FEW030 26/19 A3006 RMK AO2 SLP177 T02560189
Loading
Personal Weather Stations






























Interactive Weather Map
Tropical Storm Tracking
New forecast layout! Learn more

10-Day Weather Forecast

Advertisements
Track Severe Weather on mobile